Time;durP1;ratioP1;P1;durP2;ratioP2;P2;SDS_P1;SDS_P2;PMS_P1;PMS_P2;Temp;Humidity;BMP_temperature;BMP_pressure;BME280_temperature;BME280_humidity;BME280_pressure;Samples;Min_cycle;Max_cycle;Signal;HPM_P1;HPM_P2
2021/07/04 00:02:24;;;;;;;19.25;17.23;;;17.40;99.90;;;;;;5029879;28;20441;-56
2021/07/04 00:04:50;;;;;;;19.40;16.25;;;17.20;99.90;;;;;;5031412;28;20029;-56
2021/07/04 00:07:16;;;;;;;18.30;15.93;;;17.20;99.90;;;;;;5031313;28;20383;-56
2021/07/04 00:09:41;;;;;;;20.13;17.92;;;17.20;99.90;;;;;;5031340;28;20040;-56
2021/07/04 00:12:08;;;;;;;26.85;17.73;;;17.20;99.90;;;;;;5031105;28;20029;-56
2021/07/04 00:14:34;;;;;;;19.23;17.17;;;17.20;99.90;;;;;;5031714;28;20033;-56
2021/07/04 00:17:00;;;;;;;31.00;18.60;;;17.10;99.90;;;;;;5030999;28;20028;-56
2021/07/04 00:19:26;;;;;;;19.23;16.00;;;17.00;99.90;;;;;;5031064;28;20032;-56
2021/07/04 00:21:51;;;;;;;20.10;16.70;;;17.10;99.90;;;;;;5031165;28;20025;-56
2021/07/04 00:24:17;;;;;;;24.83;18.67;;;17.10;99.90;;;;;;5031107;28;20030;-56
2021/07/04 00:26:43;;;;;;;29.67;22.15;;;17.10;99.90;;;;;;5031173;28;20088;-56
2021/07/04 00:29:09;;;;;;;33.58;23.30;;;17.10;99.90;;;;;;5029789;28;20402;-56
2021/07/04 00:31:34;;;;;;;36.22;25.45;;;17.10;99.90;;;;;;5030667;28;20100;-56
2021/07/04 00:34:01;;;;;;;39.72;27.40;;;17.10;99.90;;;;;;5031172;28;20033;-57
2021/07/04 00:36:26;;;;;;;34.45;25.42;;;17.20;99.90;;;;;;5031098;28;20500;-56
2021/07/04 00:38:52;;;;;;;26.70;20.95;;;17.20;99.90;;;;;;5031084;28;20096;-56
2021/07/04 00:41:19;;;;;;;36.03;23.95;;;17.20;99.90;;;;;;5029437;28;20022;-56
2021/07/04 00:43:47;;;;;;;190.48;25.08;;;17.30;99.90;;;;;;5031153;28;20040;-56
2021/07/04 00:46:14;;;;;;;34.78;20.23;;;17.20;99.90;;;;;;5031031;28;20032;-56
2021/07/04 00:48:39;;;;;;;46.00;19.52;;;17.00;99.90;;;;;;5029406;28;20040;-56
2021/07/04 00:51:05;;;;;;;24.80;18.75;;;17.00;99.90;;;;;;5029555;28;20348;-56
2021/07/04 00:53:31;;;;;;;27.92;19.95;;;16.90;99.90;;;;;;5031298;28;20061;-56
2021/07/04 00:55:56;;;;;;;59.35;22.52;;;16.90;99.90;;;;;;5030787;28;20028;-56
2021/07/04 00:58:22;;;;;;;38.15;22.58;;;16.90;99.90;;;;;;5030684;28;20029;-56
2021/07/04 01:00:48;;;;;;;116.05;23.70;;;16.90;99.90;;;;;;5030961;28;20104;-56
2021/07/04 01:03:13;;;;;;;137.10;26.08;;;17.00;99.90;;;;;;5030721;28;20021;-56
2021/07/04 01:05:41;;;;;;;152.10;28.85;;;16.90;99.90;;;;;;5030716;28;20021;-56
2021/07/04 01:08:08;;;;;;;137.55;28.38;;;16.90;99.90;;;;;;5034856;28;20467;-56
2021/07/04 01:10:40;;;;;;;72.43;25.60;;;16.90;99.90;;;;;;5034725;28;20108;-56
2021/07/04 01:13:07;;;;;;;55.60;24.23;;;16.90;99.90;;;;;;5034640;28;20478;-56
2021/07/04 01:15:33;;;;;;;74.75;23.20;;;17.00;99.90;;;;;;5033048;28;20386;-56
2021/07/04 01:18:01;;;;;;;65.60;24.00;;;17.00;99.90;;;;;;5034429;28;20029;-56
2021/07/04 01:20:28;;;;;;;63.08;22.60;;;17.10;99.90;;;;;;5033273;28;20083;-56
2021/07/04 01:22:58;;;;;;;36.38;23.20;;;17.20;99.90;;;;;;5034192;28;20424;-56
2021/07/04 01:25:25;;;;;;;40.95;21.48;;;17.20;99.90;;;;;;5034900;28;20371;-56
2021/07/04 01:27:51;;;;;;;37.65;20.83;;;17.20;99.90;;;;;;5033991;28;20112;-56
2021/07/04 01:30:17;;;;;;;33.78;23.13;;;17.30;99.90;;;;;;5034053;28;20456;-56
2021/07/04 01:32:43;;;;;;;33.55;22.60;;;17.30;99.90;;;;;;5033982;28;20119;-56
2021/07/04 01:35:09;;;;;;;35.38;23.85;;;17.20;99.90;;;;;;5034130;28;20029;-57
2021/07/04 01:37:35;;;;;;;36.55;25.83;;;17.30;99.90;;;;;;5033990;28;20071;-56
2021/07/04 01:40:01;;;;;;;53.70;30.02;;;17.20;99.90;;;;;;5033826;28;20017;-56
2021/07/04 01:42:26;;;;;;;38.90;25.83;;;17.20;99.90;;;;;;5034194;28;20014;-56
2021/07/04 01:44:52;;;;;;;38.17;23.63;;;17.10;99.90;;;;;;5034027;28;20026;-56
2021/07/04 01:47:17;;;;;;;49.85;25.38;;;17.20;99.90;;;;;;5033890;28;20025;-57
2021/07/04 01:49:43;;;;;;;41.90;24.10;;;17.20;99.90;;;;;;5033945;28;20143;-56
2021/07/04 01:52:09;;;;;;;43.83;24.13;;;17.20;99.90;;;;;;5033958;28;20386;-56
2021/07/04 01:54:35;;;;;;;89.85;25.75;;;17.10;99.90;;;;;;5032419;28;20037;-56
2021/07/04 01:57:11;;;;;;;42.42;27.75;;;17.10;99.90;;;;;;5033790;28;20100;-56
2021/07/04 01:59:41;;;;;;;39.90;27.83;;;17.10;99.90;;;;;;5033489;28;20049;-57
2021/07/04 02:02:08;;;;;;;33.35;27.10;;;17.30;99.90;;;;;;5033542;28;20026;-57
2021/07/04 02:04:42;;;;;;;27.70;22.40;;;17.30;99.90;;;;;;5032193;28;20071;-56
2021/07/04 02:07:18;;;;;;;29.65;22.58;;;17.30;99.90;;;;;;5033644;28;20117;-56
2021/07/04 02:09:48;;;;;;;26.88;22.02;;;17.40;99.90;;;;;;5033346;28;20029;-56
2021/07/04 02:12:16;;;;;;;24.30;21.42;;;17.30;99.90;;;;;;5033361;28;20096;-56
2021/07/04 02:14:42;;;;;;;24.23;21.65;;;17.30;99.90;;;;;;5033716;28;20108;-56
2021/07/04 02:17:08;;;;;;;23.95;21.38;;;17.40;99.90;;;;;;5031814;28;20025;-56
2021/07/04 02:19:35;;;;;;;28.58;22.27;;;17.60;99.90;;;;;;5033242;28;20108;-56
2021/07/04 02:22:02;;;;;;;24.58;21.30;;;17.70;99.90;;;;;;5032138;28;20571;-56
2021/07/04 02:24:29;;;;;;;25.85;19.23;;;17.70;99.90;;;;;;5033502;28;20040;-56
2021/07/04 02:26:57;;;;;;;22.67;18.65;;;17.70;99.90;;;;;;5033211;28;20034;-56
2021/07/04 02:29:22;;;;;;;26.00;20.17;;;17.50;99.90;;;;;;5033284;28;20087;-56
2021/07/04 02:31:48;;;;;;;23.20;20.38;;;17.60;99.90;;;;;;5032861;28;20438;-56
2021/07/04 02:34:15;;;;;;;24.25;20.05;;;17.70;99.90;;;;;;5031496;28;20044;-57
2021/07/04 02:36:40;;;;;;;24.33;20.77;;;17.70;99.90;;;;;;5031890;28;20022;-56
2021/07/04 02:39:06;;;;;;;24.15;18.55;;;17.70;99.90;;;;;;5033391;28;20124;-56
2021/07/04 02:41:32;;;;;;;22.25;19.75;;;17.70;99.90;;;;;;5031908;28;20032;-56
2021/07/04 02:43:58;;;;;;;19.73;17.50;;;17.60;99.90;;;;;;5033043;28;20021;-56
2021/07/04 02:46:24;;;;;;;20.73;18.23;;;17.40;99.90;;;;;;5032864;28;20021;-56
2021/07/04 02:48:50;;;;;;;21.15;18.92;;;17.30;99.90;;;;;;5032622;28;20025;-56
2021/07/04 02:51:15;;;;;;;20.52;18.42;;;17.20;99.90;;;;;;5032693;28;20037;-56
2021/07/04 02:53:41;;;;;;;20.15;17.85;;;17.30;99.90;;;;;;5031341;28;20029;-56
2021/07/04 02:56:07;;;;;;;21.27;18.40;;;17.20;99.90;;;;;;5032442;28;20030;-56
2021/07/04 02:58:32;;;;;;;20.63;18.42;;;17.20;99.90;;;;;;5033042;28;20117;-56
2021/07/04 03:00:58;;;;;;;23.15;19.80;;;17.20;99.90;;;;;;5032426;28;20093;-56
2021/07/04 03:03:24;;;;;;;27.45;19.38;;;17.10;99.90;;;;;;5032607;28;20025;-56
2021/07/04 03:05:49;;;;;;;52.08;16.65;;;17.10;99.90;;;;;;5032285;28;20544;-56
2021/07/04 03:08:15;;;;;;;55.92;18.10;;;16.90;99.90;;;;;;5032344;28;20025;-56
2021/07/04 03:10:42;;;;;;;92.60;17.80;;;16.80;99.90;;;;;;5031257;28;20033;-56
2021/07/04 03:13:10;;;;;;;49.80;19.02;;;16.80;99.90;;;;;;5032266;28;20017;-56
2021/07/04 03:15:36;;;;;;;146.68;18.50;;;16.70;99.90;;;;;;5031097;28;20562;-56
2021/07/04 03:18:02;;;;;;;39.20;17.23;;;16.70;99.90;;;;;;5032456;28;20116;-56
2021/07/04 03:20:28;;;;;;;64.35;16.77;;;16.60;99.90;;;;;;5032028;28;20021;-56
2021/07/04 03:22:53;;;;;;;91.13;17.30;;;16.60;99.90;;;;;;5030686;28;20026;-56
2021/07/04 03:25:19;;;;;;;95.72;17.15;;;16.40;99.90;;;;;;5031868;28;20116;-56
2021/07/04 03:27:46;;;;;;;25.60;17.98;;;16.40;99.90;;;;;;5031839;28;20083;-56
2021/07/04 03:30:18;;;;;;;29.02;21.42;;;16.50;99.90;;;;;;5031572;28;20092;-56
2021/07/04 03:32:44;;;;;;;25.98;21.63;;;16.60;99.90;;;;;;5031781;28;20417;-56
2021/07/04 03:35:11;;;;;;;23.77;21.20;;;16.70;99.90;;;;;;5031850;28;20033;-56
2021/07/04 03:37:38;;;;;;;26.30;21.00;;;16.80;99.90;;;;;;5031671;28;20018;-56
2021/07/04 03:40:06;;;;;;;20.38;16.38;;;16.80;99.90;;;;;;5031923;28;20086;-56
2021/07/04 03:42:32;;;;;;;18.88;16.08;;;16.80;99.90;;;;;;5030379;28;20491;-56
2021/07/04 03:44:58;;;;;;;16.80;15.07;;;16.80;99.90;;;;;;5031671;28;20028;-56
2021/07/04 03:47:25;;;;;;;15.93;14.35;;;16.80;99.90;;;;;;5031418;28;20474;-56
2021/07/04 03:49:52;;;;;;;15.57;14.10;;;16.80;99.90;;;;;;5031828;28;20367;-56
2021/07/04 03:52:18;;;;;;;17.20;14.23;;;16.90;99.90;;;;;;5031510;28;20061;-56
2021/07/04 03:54:44;;;;;;;13.85;12.55;;;16.90;99.90;;;;;;5031431;28;20040;-56
2021/07/04 03:57:22;;;;;;;17.58;15.88;;;17.00;99.90;;;;;;5031287;28;20026;-56
2021/07/04 03:59:52;;;;;;;18.92;16.92;;;17.20;99.90;;;;;;5031345;28;20026;-56
2021/07/04 04:02:19;;;;;;;19.13;17.13;;;17.20;99.90;;;;;;5031253;28;20017;-56
2021/07/04 04:04:44;;;;;;;20.15;17.65;;;17.30;99.90;;;;;;5031597;28;20025;-56
2021/07/04 04:07:10;;;;;;;14.98;13.48;;;17.30;99.90;;;;;;5031320;28;20095;-56
2021/07/04 04:09:36;;;;;;;18.77;16.85;;;17.40;99.90;;;;;;5031573;28;20381;-57
2021/07/04 04:12:02;;;;;;;15.70;14.10;;;17.60;99.90;;;;;;5031191;28;20112;-56
2021/07/04 04:14:28;;;;;;;15.75;14.15;;;17.50;99.90;;;;;;5031062;28;20033;-56
2021/07/04 04:16:53;;;;;;;15.82;14.25;;;17.40;99.90;;;;;;5031450;28;20379;-56
2021/07/04 04:19:19;;;;;;;16.83;15.05;;;17.40;99.90;;;;;;5029730;28;20072;-56
2021/07/04 04:21:44;;;;;;;13.10;11.57;;;17.30;99.90;;;;;;5031362;28;20104;-56
2021/07/04 04:24:10;;;;;;;16.20;12.27;;;17.20;99.90;;;;;;5031014;28;20032;-56
2021/07/04 04:26:36;;;;;;;15.05;13.40;;;17.20;99.90;;;;;;5031510;28;20148;-56
2021/07/04 04:29:01;;;;;;;16.10;14.50;;;17.10;99.90;;;;;;5031221;28;20056;-56
2021/07/04 04:31:27;;;;;;;16.65;14.00;;;17.20;99.90;;;;;;5031080;28;20045;-56
2021/07/04 04:33:53;;;;;;;16.15;14.30;;;17.20;99.90;;;;;;5031120;28;20423;-56
2021/07/04 04:36:19;;;;;;;16.75;15.02;;;17.10;99.90;;;;;;5029719;28;20036;-56
2021/07/04 04:38:44;;;;;;;16.88;15.10;;;17.20;99.90;;;;;;5031038;28;20470;-56
2021/07/04 04:41:10;;;;;;;16.50;14.90;;;17.30;99.90;;;;;;5030336;28;20033;-56
2021/07/04 04:43:36;;;;;;;18.27;14.80;;;17.50;99.90;;;;;;5035314;28;20029;-56
2021/07/04 04:46:02;;;;;;;18.63;15.05;;;17.60;99.90;;;;;;5035268;28;20426;-56
2021/07/04 04:48:27;;;;;;;15.75;14.10;;;17.80;99.90;;;;;;5034876;28;20017;-56
2021/07/04 04:50:53;;;;;;;14.82;13.18;;;17.70;99.90;;;;;;5034863;28;20060;-56
2021/07/04 04:53:19;;;;;;;15.10;13.50;;;17.70;99.90;;;;;;5033757;28;20459;-56
2021/07/04 04:55:44;;;;;;;14.02;12.52;;;17.80;99.90;;;;;;5033585;28;20029;-56
2021/07/04 04:58:10;;;;;;;16.15;13.43;;;17.80;99.90;;;;;;5034842;28;20204;-56
2021/07/04 05:00:36;;;;;;;14.93;13.40;;;17.80;99.90;;;;;;5034780;28;20100;-56
2021/07/04 05:03:06;;;;;;;15.07;13.20;;;17.80;99.90;;;;;;5034931;28;20450;-56
2021/07/04 05:05:32;;;;;;;15.23;13.70;;;18.00;99.90;;;;;;5034813;28;20076;-56
2021/07/04 05:07:58;;;;;;;15.13;13.23;;;18.00;99.90;;;;;;5033564;28;20044;-56
2021/07/04 05:10:24;;;;;;;15.88;13.30;;;18.10;99.90;;;;;;5034706;28;20021;-56
2021/07/04 05:12:49;;;;;;;16.10;13.27;;;18.20;99.90;;;;;;5034428;28;20029;-56
2021/07/04 05:15:15;;;;;;;15.13;13.40;;;18.20;99.90;;;;;;5034616;28;20017;-56
2021/07/04 05:17:40;;;;;;;14.57;13.07;;;18.40;99.90;;;;;;5034375;28;20037;-56
2021/07/04 05:20:07;;;;;;;14.82;13.32;;;18.40;99.90;;;;;;5034445;28;20118;-56
2021/07/04 05:22:34;;;;;;;16.58;12.98;;;18.60;99.90;;;;;;5034249;28;20044;-56
2021/07/04 05:25:00;;;;;;;15.55;12.85;;;18.70;99.90;;;;;;5034514;28;20029;-56
2021/07/04 05:27:26;;;;;;;14.75;11.98;;;18.70;99.90;;;;;;5034188;28;20036;-56
2021/07/04 05:29:51;;;;;;;13.82;12.30;;;18.80;99.90;;;;;;5034113;28;20029;-56
2021/07/04 05:32:17;;;;;;;14.45;12.90;;;18.80;99.90;;;;;;5034276;28;20100;-56
2021/07/04 05:34:42;;;;;;;15.75;13.32;;;18.80;99.90;;;;;;5034267;28;20381;-56
2021/07/04 05:37:08;;;;;;;14.20;12.80;;;18.90;99.90;;;;;;5034023;28;20033;-56
2021/07/04 05:39:34;;;;;;;13.70;12.00;;;18.90;99.90;;;;;;5032670;28;20026;-56
2021/07/04 05:41:59;;;;;;;14.27;12.77;;;18.90;99.90;;;;;;5033866;28;20484;-56
2021/07/04 05:44:25;;;;;;;13.63;12.10;;;19.00;99.90;;;;;;5034113;28;20059;-56
2021/07/04 05:46:51;;;;;;;17.88;13.02;;;19.30;99.90;;;;;;5033802;28;20040;-56
2021/07/04 05:49:17;;;;;;;13.55;12.00;;;19.30;99.90;;;;;;5032512;28;20033;-56
2021/07/04 05:51:42;;;;;;;15.52;13.23;;;19.30;99.90;;;;;;5033412;28;20061;-56
2021/07/04 05:54:08;;;;;;;15.48;12.40;;;19.50;99.90;;;;;;5033425;28;20060;-56
2021/07/04 05:56:34;;;;;;;12.98;11.60;;;19.90;99.90;;;;;;5032379;28;20021;-56
2021/07/04 05:59:00;;;;;;;17.30;12.93;;;20.00;99.90;;;;;;5033411;28;20501;-56
2021/07/04 06:01:25;;;;;;;16.10;12.10;;;20.00;99.90;;;;;;5033529;28;20096;-56
2021/07/04 06:03:51;;;;;;;11.93;10.57;;;20.20;99.90;;;;;;5033495;28;20478;-56
2021/07/04 06:06:16;;;;;;;12.23;10.60;;;19.90;99.90;;;;;;5033387;28;20018;-56
2021/07/04 06:08:42;;;;;;;12.32;10.68;;;19.90;99.90;;;;;;5033253;28;20060;-56
2021/07/04 06:11:08;;;;;;;11.13;9.65;;;20.20;99.90;;;;;;5033389;28;20029;-56
2021/07/04 06:13:33;;;;;;;11.10;9.90;;;20.20;99.90;;;;;;5033320;28;20026;-56
2021/07/04 06:15:59;;;;;;;11.07;9.90;;;20.20;99.90;;;;;;5033269;28;20021;-56
2021/07/04 06:18:25;;;;;;;11.50;9.55;;;20.20;99.90;;;;;;5033183;28;20021;-56
2021/07/04 06:20:51;;;;;;;11.35;10.15;;;20.20;99.90;;;;;;5033188;28;20021;-56
2021/07/04 06:23:16;;;;;;;11.68;10.10;;;20.10;99.90;;;;;;5033380;28;20363;-56
2021/07/04 06:25:42;;;;;;;15.68;11.13;;;19.80;99.90;;;;;;5033224;28;20390;-56
2021/07/04 06:28:08;;;;;;;12.80;11.48;;;19.70;99.90;;;;;;5031910;28;20030;-56
2021/07/04 06:30:33;;;;;;;14.43;11.55;;;19.60;99.90;;;;;;5032996;28;20033;-56
2021/07/04 06:32:59;;;;;;;12.75;11.07;;;19.60;99.90;;;;;;5032999;28;20099;-56
2021/07/04 06:35:25;;;;;;;18.48;11.95;;;19.60;99.90;;;;;;5032737;28;20030;-56
2021/07/04 06:37:51;;;;;;;13.75;11.10;;;19.70;99.90;;;;;;5031230;28;20075;-56
2021/07/04 06:40:16;;;;;;;14.02;11.48;;;19.80;99.90;;;;;;5032882;28;20025;-56
2021/07/04 06:42:42;;;;;;;14.77;11.80;;;19.80;99.90;;;;;;5032824;28;20026;-56
2021/07/04 06:45:10;;;;;;;13.80;12.30;;;19.60;99.90;;;;;;5032226;28;20064;-56
2021/07/04 06:47:40;;;;;;;13.48;11.45;;;19.60;99.90;;;;;;5032748;28;20128;-56
2021/07/04 06:50:07;;;;;;;13.75;11.82;;;19.70;99.90;;;;;;5032814;28;20017;-56
2021/07/04 06:52:33;;;;;;;11.80;10.57;;;19.70;99.90;;;;;;5032574;28;20025;-56
2021/07/04 06:54:59;;;;;;;13.43;11.57;;;19.70;99.90;;;;;;5032453;28;20029;-56
2021/07/04 06:57:27;;;;;;;12.10;10.88;;;19.70;99.90;;;;;;5031271;28;20022;-56
2021/07/04 07:00:06;;;;;;;14.20;12.18;;;19.70;99.90;;;;;;5032452;28;20017;-56
2021/07/04 07:02:32;;;;;;;10.43;9.43;;;19.80;99.90;;;;;;5032245;28;20104;-56
2021/07/04 07:04:58;;;;;;;11.48;8.93;;;20.10;99.90;;;;;;5030475;28;20164;-56
2021/07/04 07:07:24;;;;;;;11.52;8.75;;;20.40;99.90;;;;;;5032557;28;20041;-56
2021/07/04 07:09:50;;;;;;;10.27;9.15;;;20.70;99.90;;;;;;5032519;28;20033;-54
2021/07/04 07:12:16;;;;;;;8.45;7.65;;;21.30;99.90;;;;;;5032344;28;20017;-54
2021/07/04 07:14:42;;;;;;;8.55;7.75;;;21.90;99.90;;;;;;5032626;28;20026;-55
2021/07/04 07:17:08;;;;;;;7.93;7.18;;;22.20;99.90;;;;;;5032631;28;20018;-55
2021/07/04 07:19:33;;;;;;;9.40;8.20;;;23.10;99.90;;;;;;5031045;28;20053;-56
2021/07/04 07:22:00;;;;;;;8.93;7.90;;;23.50;99.90;;;;;;5032143;28;20036;-56
2021/07/04 07:24:27;;;;;;;7.93;6.65;;;23.60;99.90;;;;;;5014647;28;20021;-55
2021/07/04 07:26:52;;;;;;;5.47;5.07;;;23.20;99.90;;;;;;5031890;28;20045;-55
2021/07/04 07:29:18;;;;;;;5.95;5.40;;;22.80;99.90;;;;;;5032382;28;20053;-55
2021/07/04 07:31:44;;;;;;;6.78;6.07;;;22.50;99.90;;;;;;5032479;28;20594;-55
2021/07/04 07:34:10;;;;;;;8.75;5.70;;;22.90;99.90;;;;;;5032246;28;20037;-55
2021/07/04 07:36:36;;;;;;;7.53;6.05;;;23.30;99.90;;;;;;4998033;28;20536;-56
2021/07/04 07:39:02;;;;;;;10.30;6.60;;;23.80;99.90;;;;;;5032096;28;20482;-55
2021/07/04 07:41:27;;;;;;;7.13;6.43;;;24.10;99.90;;;;;;5030634;28;20112;-55
2021/07/04 07:43:53;;;;;;;7.28;5.93;;;24.00;99.90;;;;;;5032020;28;20116;-55
2021/07/04 07:46:18;;;;;;;7.25;6.65;;;23.90;99.90;;;;;;5030270;28;20033;-55
2021/07/04 07:48:44;;;;;;;9.98;7.40;;;23.80;99.90;;;;;;5031512;28;20036;-55
2021/07/04 07:51:10;;;;;;;8.77;7.30;;;24.10;99.90;;;;;;5031554;28;20030;-55
2021/07/04 07:53:35;;;;;;;7.63;6.82;;;24.00;99.90;;;;;;5031564;28;20029;-55
2021/07/04 07:56:01;;;;;;;7.82;7.00;;;24.00;99.90;;;;;;5031454;28;20438;-55
2021/07/04 07:58:27;;;;;;;8.85;6.55;;;24.20;99.90;;;;;;5031271;28;20025;-55
2021/07/04 08:00:53;;;;;;;7.32;6.05;;;24.20;99.90;;;;;;5031333;28;20017;-55
2021/07/04 08:03:18;;;;;;;5.40;4.90;;;24.20;99.90;;;;;;5031416;28;20025;-55
2021/07/04 08:05:44;;;;;;;8.02;4.57;;;23.60;99.90;;;;;;5031101;28;20104;-55
2021/07/04 08:08:10;;;;;;;5.53;4.53;;;23.30;99.90;;;;;;5031074;28;20032;-55
2021/07/04 08:10:36;;;;;;;4.93;4.47;;;23.10;99.90;;;;;;5031679;28;20029;-55
2021/07/04 08:13:03;;;;;;;8.45;4.97;;;22.90;99.90;;;;;;5031489;28;20425;-55
2021/07/04 08:15:29;;;;;;;5.93;4.97;;;23.00;99.90;;;;;;5030871;28;20060;-55
2021/07/04 08:17:55;;;;;;;5.50;5.00;;;22.90;99.90;;;;;;5031049;28;20135;-55
2021/07/04 08:20:20;;;;;;;5.40;4.93;;;22.70;99.90;;;;;;5030985;28;20040;-55
2021/07/04 08:22:46;;;;;;;10.02;5.50;;;22.70;99.90;;;;;;5031102;28;20466;-55
2021/07/04 08:25:13;;;;;;;7.65;6.25;;;22.50;99.90;;;;;;5031055;28;20046;-55
2021/07/04 08:27:39;;;;;;;6.97;6.00;;;22.10;99.90;;;;;;5030945;28;20101;-54
2021/07/04 08:30:07;;;;;;;7.07;6.05;;;21.90;99.90;;;;;;5031414;28;20125;-54
2021/07/04 08:32:32;;;;;;;9.13;6.25;;;22.00;99.90;;;;;;5031448;28;20496;-55
2021/07/04 08:34:58;;;;;;;7.88;6.25;;;22.40;99.90;;;;;;5031312;28;20075;-55
2021/07/04 08:37:24;;;;;;;7.00;6.25;;;22.20;99.90;;;;;;5031423;28;20017;-55
2021/07/04 08:39:49;;;;;;;7.10;6.20;;;22.20;99.90;;;;;;5031236;28;20372;-55
2021/07/04 08:42:17;;;;;;;7.32;5.70;;;22.30;99.90;;;;;;5031228;28;20025;-55
2021/07/04 08:44:54;;;;;;;7.40;6.18;;;22.50;99.90;;;;;;5031500;28;20025;-56
2021/07/04 08:47:22;;;;;;;6.82;5.30;;;22.80;99.90;;;;;;5030913;28;20030;-56
2021/07/04 08:49:50;;;;;;;6.28;5.30;;;22.60;99.90;;;;;;5030956;28;20037;-55
2021/07/04 08:52:16;;;;;;;5.68;5.18;;;22.50;99.90;;;;;;5030991;28;20026;-54
2021/07/04 08:54:43;;;;;;;6.30;4.55;;;22.40;99.90;;;;;;5031038;28;20033;-55
2021/07/04 08:57:09;;;;;;;10.07;4.70;;;22.50;99.90;;;;;;5029945;28;20061;-55
2021/07/04 08:59:39;;;;;;;5.80;4.90;;;22.60;99.90;;;;;;5031094;28;20013;-55
2021/07/04 09:02:10;;;;;;;5.82;3.95;;;22.60;99.90;;;;;;5031064;28;20117;-56
2021/07/04 09:04:40;;;;;;;4.65;4.13;;;22.50;99.90;;;;;;5031029;28;20422;-55
2021/07/04 09:07:07;;;;;;;9.65;3.72;;;22.40;99.90;;;;;;5030951;28;20036;-55
2021/07/04 09:09:35;;;;;;;6.03;4.03;;;22.20;99.90;;;;;;5030844;28;20381;-55
2021/07/04 09:12:11;;;;;;;5.20;3.75;;;22.10;99.90;;;;;;5031098;28;20038;-55
2021/07/04 09:14:45;;;;;;;4.47;3.72;;;22.40;99.90;;;;;;5030873;28;20026;-60
2021/07/04 09:17:13;;;;;;;4.75;3.63;;;22.60;99.90;;;;;;5031156;28;20072;-55
2021/07/04 09:20:00;;;;;;;4.95;3.47;;;22.60;99.90;;;;;;5030484;28;20021;-54
2021/07/04 09:22:31;;;;;;;4.75;3.60;;;23.10;99.90;;;;;;5030506;28;20115;-55
2021/07/04 09:25:16;;;;;;;4.85;3.28;;;22.90;99.90;;;;;;5031162;28;20060;-55
2021/07/04 09:28:03;;;;;;;5.28;3.20;;;23.10;99.90;;;;;;5032017;28;20474;-62
2021/07/04 09:30:33;;;;;;;5.72;3.38;;;23.10;99.90;;;;;;5019197;28;20560;-55
2021/07/04 09:33:08;;;;;;;3.55;3.10;;;23.10;99.90;;;;;;5032537;28;20449;-55
2021/07/04 09:35:33;;;;;;;3.40;2.95;;;22.90;99.90;;;;;;5034094;28;20025;-55
2021/07/04 09:37:59;;;;;;;3.80;2.83;;;22.80;99.90;;;;;;5033958;28;20188;-55
2021/07/04 09:40:26;;;;;;;2.90;2.70;;;22.80;99.90;;;;;;5034192;28;20064;-55
2021/07/04 09:42:53;;;;;;;7.80;3.42;;;23.00;99.90;;;;;;5033804;28;20068;-55
2021/07/04 09:45:20;;;;;;;3.58;3.10;;;23.20;99.90;;;;;;5032951;28;20029;-55
2021/07/04 09:47:57;;;;;;;4.88;3.35;;;23.10;99.90;;;;;;5034171;28;20025;-55
2021/07/04 09:50:24;;;;;;;3.22;2.40;;;23.00;99.90;;;;;;5034094;28;20029;-55
2021/07/04 09:52:57;;;;;;;5.88;2.00;;;22.00;99.90;;;;;;5032587;28;20468;-61
2021/07/04 09:55:25;;;;;;;5.63;1.02;;;19.90;99.90;;;;;;5032643;28;20030;-60
2021/07/04 09:58:01;;;;;;;9.13;2.15;;;17.00;99.90;;;;;;5032811;28;20348;-60
2021/07/04 10:00:32;;;;;;;11.95;1.42;;;16.10;99.90;;;;;;5034425;28;20080;-61
2021/07/04 10:03:07;;;;;;;13.02;1.45;;;15.70;99.90;;;;;;5033912;28;20021;-63
2021/07/04 10:05:33;;;;;;;2.13;0.75;;;15.20;99.90;;;;;;5032735;28;20036;-62
2021/07/04 10:07:59;;;;;;;4.30;1.05;;;15.00;99.90;;;;;;5033817;28;20021;-63
2021/07/04 10:10:24;;;;;;;5.30;0.80;;;14.70;99.90;;;;;;5034115;28;20541;-60
2021/07/04 10:12:53;;;;;;;2.72;0.82;;;14.60;99.90;;;;;;5033928;28;20026;-60
2021/07/04 10:15:19;;;;;;;8.48;1.67;;;14.60;99.90;;;;;;5032520;28;20031;-60
2021/07/04 10:17:44;;;;;;;3.17;1.00;;;14.60;99.90;;;;;;5033668;28;20437;-60
2021/07/04 10:20:11;;;;;;;2.45;0.77;;;14.60;99.90;;;;;;5033596;28;20078;-60
2021/07/04 10:22:38;;;;;;;3.03;1.00;;;14.70;99.90;;;;;;5033587;28;20525;-60
2021/07/04 10:25:07;;;;;;;5.38;1.33;;;14.90;99.90;;;;;;5033840;28;20072;-60
2021/07/04 10:27:38;;;;;;;1.90;0.88;;;15.00;99.90;;;;;;5033434;28;20075;-60
2021/07/04 10:30:07;;;;;;;2.07;1.10;;;14.90;99.90;;;;;;5032198;28;20497;-58
2021/07/04 10:32:32;;;;;;;2.83;1.50;;;15.00;99.90;;;;;;5033254;28;20049;-59
2021/07/04 10:35:08;;;;;;;2.22;1.90;;;15.00;99.90;;;;;;5032029;28;20493;-59
2021/07/04 10:37:39;;;;;;;4.40;2.42;;;15.10;99.90;;;;;;5033323;28;20463;-59
2021/07/04 10:40:14;;;;;;;3.38;3.00;;;15.10;99.90;;;;;;5033296;28;20386;-60
2021/07/04 10:42:40;;;;;;;3.88;3.38;;;15.20;99.90;;;;;;5031983;28;20199;-59
2021/07/04 10:45:46;;;;;;;3.90;3.42;;;15.30;99.90;;;;;;5033530;28;20112;-59
2021/07/04 10:48:19;;;;;;;4.68;3.17;;;15.30;99.90;;;;;;5032781;28;20045;-59
2021/07/04 10:51:15;;;;;;;7.20;2.95;;;15.20;99.90;;;;;;5033071;28;20026;-59
2021/07/04 10:53:47;;;;;;;4.78;3.30;;;15.20;99.90;;;;;;5031478;28;20565;-58
2021/07/04 10:56:35;;;;;;;4.93;2.97;;;15.30;99.90;;;;;;5032852;28;20045;-58
2021/07/04 10:59:03;;;;;;;5.47;3.10;;;15.30;99.90;;;;;;5032817;28;20963;-59
2021/07/04 11:01:52;;;;;;;3.40;2.80;;;15.20;99.90;;;;;;5032782;28;20021;-59
2021/07/04 11:04:27;;;;;;;3.30;2.10;;;15.20;99.90;;;;;;5033247;28;20028;-59
2021/07/04 11:06:58;;;;;;;3.45;1.90;;;15.20;99.90;;;;;;5031379;28;20036;-59
2021/07/04 11:09:24;;;;;;;4.22;1.90;;;15.10;99.90;;;;;;5031115;28;20025;-59
2021/07/04 11:11:50;;;;;;;2.72;2.00;;;15.20;99.90;;;;;;5032382;28;20033;-59
2021/07/04 11:14:16;;;;;;;2.30;1.65;;;15.20;99.90;;;;;;5031318;28;20036;-59
2021/07/04 11:17:13;;;;;;;2.53;1.50;;;15.20;99.90;;;;;;5032405;28;20143;-60
2021/07/04 11:20:06;;;;;;;4.75;1.38;;;15.20;99.90;;;;;;4987966;28;20038;-60
2021/07/04 11:23:00;;;;;;;4.90;1.58;;;15.30;99.90;;;;;;5030792;28;20544;-60
2021/07/04 11:25:44;;;;;;;1.90;1.23;;;15.30;99.90;;;;;;5032470;28;20029;-60
2021/07/04 11:28:18;;;;;;;2.78;1.25;;;15.40;99.90;;;;;;5032148;28;20124;-60
2021/07/04 11:31:05;;;;;;;2.83;1.98;;;15.50;99.90;;;;;;5030789;28;20033;-60
2021/07/04 11:33:48;;;;;;;1.63;1.20;;;15.60;99.90;;;;;;5021642;28;20502;-60
2021/07/04 11:36:16;;;;;;;4.38;1.40;;;15.90;99.90;;;;;;5032077;28;20061;-59
2021/07/04 11:39:01;;;;;;;8.27;1.75;;;16.00;99.90;;;;;;5032079;28;20556;-59
2021/07/04 11:41:29;;;;;;;4.03;1.20;;;16.10;99.90;;;;;;5031952;28;20065;-59
2021/07/04 11:44:08;;;;;;;1.65;1.05;;;16.20;99.90;;;;;;5032386;28;20094;-59
2021/07/04 11:46:36;;;;;;;1.33;0.70;;;16.40;99.90;;;;;;5031800;28;20096;-60
2021/07/04 11:49:09;;;;;;;2.17;1.05;;;16.50;99.90;;;;;;5031719;28;20017;-60
2021/07/04 11:51:36;;;;;;;2.28;1.00;;;16.60;99.90;;;;;;5031365;28;20026;-59
2021/07/04 11:54:30;;;;;;;2.05;0.90;;;16.80;99.90;;;;;;5031701;28;20053;-57
2021/07/04 11:57:30;;;;;;;2.33;1.10;;;16.80;99.90;;;;;;5029535;28;20486;-57
2021/07/04 11:59:53;;;;;;;1.50;0.82;;;17.10;99.90;;;;;;5031298;28;20029;-56
2021/07/04 12:02:19;;;;;;;1.83;1.10;;;17.30;99.90;;;;;;5031501;28;20021;-56
2021/07/04 12:04:45;;;;;;;0.85;0.68;;;17.70;99.90;;;;;;5031348;28;20501;-56
2021/07/04 12:07:16;;;;;;;1.38;0.68;;;17.90;99.90;;;;;;5031307;28;20346;-56
2021/07/04 12:09:43;;;;;;;1.05;0.68;;;18.30;99.90;;;;;;5031445;28;20108;-56
2021/07/04 12:12:19;;;;;;;2.08;0.80;;;18.50;99.90;;;;;;5031486;28;20029;-55
2021/07/04 12:14:47;;;;;;;0.90;0.80;;;18.90;99.90;;;;;;5030247;28;20025;-55
2021/07/04 12:17:18;;;;;;;1.25;1.00;;;19.00;99.90;;;;;;5030289;28;20052;-54
2021/07/04 12:19:50;;;;;;;1.67;0.95;;;18.90;99.90;;;;;;5031203;28;20172;-54
2021/07/04 12:22:23;;;;;;;3.30;1.30;;;19.00;99.90;;;;;;5031561;28;20501;-54
2021/07/04 12:24:49;;;;;;;1.42;1.15;;;19.10;99.90;;;;;;5031503;28;20030;-53
2021/07/04 12:27:15;;;;;;;1.00;0.70;;;19.60;99.90;;;;;;5031525;28;20056;-52
2021/07/04 12:30:02;;;;;;;2.92;1.05;;;19.40;99.90;;;;;;5029988;28;20459;-52
2021/07/04 12:32:38;;;;;;;0.98;0.70;;;19.60;99.90;;;;;;5030937;28;20124;-52
2021/07/04 12:35:09;;;;;;;0.82;0.70;;;19.70;99.90;;;;;;5031143;28;20402;-52
2021/07/04 12:37:36;;;;;;;1.13;0.50;;;19.90;99.90;;;;;;5031270;28;20026;-52
2021/07/04 12:40:15;;;;;;;0.35;0.30;;;19.90;99.90;;;;;;5030989;28;20132;-52
2021/07/04 12:42:41;;;;;;;2.72;0.40;;;20.00;99.90;;;;;;5031223;28;20030;-52